createdAt,value
2019-04-07T00:02:29.385Z,57.83
2019-04-07T00:05:10.210Z,47.50
2019-04-07T00:07:31.051Z,41.97
2019-04-07T00:10:01.743Z,40.60
2019-04-07T00:12:32.031Z,49.27
2019-04-07T00:15:02.002Z,45.13
2019-04-07T00:17:32.311Z,34.87
2019-04-07T00:20:02.456Z,34.77
2019-04-07T00:22:32.511Z,34.50
2019-04-07T00:25:02.610Z,34.33
2019-04-07T00:27:33.393Z,37.53
2019-04-07T00:30:04.024Z,34.17
2019-04-07T00:32:34.157Z,40.77
2019-04-07T00:35:05.619Z,37.40
2019-04-07T00:37:36.245Z,38.93
2019-04-07T00:40:08.646Z,40.00
2019-04-07T00:42:39.078Z,40.90
2019-04-07T00:45:09.855Z,35.63
2019-04-07T00:47:40.307Z,38.73
2019-04-07T00:50:10.395Z,38.87
2019-04-07T00:52:40.363Z,39.83
2019-04-07T00:55:10.880Z,39.60
2019-04-07T00:57:41.759Z,37.37
2019-04-07T01:00:13.415Z,36.87
2019-04-07T01:02:44.034Z,32.73
2019-04-07T01:05:14.038Z,36.53
2019-04-07T01:07:44.040Z,33.97
2019-04-07T01:10:16.536Z,33.73
2019-04-07T01:12:46.533Z,36.10
2019-04-07T01:15:16.595Z,39.77
2019-04-07T01:17:47.716Z,43.37
2019-04-07T01:20:17.847Z,40.50
2019-04-07T01:22:48.567Z,42.33
2019-04-07T01:25:19.246Z,36.50
2019-04-07T01:27:49.942Z,47.07
2019-04-07T01:30:20.178Z,38.10
2019-04-07T01:32:50.971Z,37.10
2019-04-07T01:35:21.363Z,34.67
2019-04-07T01:37:51.784Z,38.17
2019-04-07T01:40:21.799Z,33.63
2019-04-07T01:42:53.713Z,39.27
2019-04-07T01:45:31.858Z,37.27
2019-04-07T01:48:12.798Z,36.73
2019-04-07T01:50:48.169Z,36.80
2019-04-07T01:53:22.951Z,40.67
2019-04-07T01:55:54.488Z,40.10
2019-04-07T01:58:31.848Z,38.13
2019-04-07T02:01:09.181Z,39.97
2019-04-07T02:03:51.125Z,37.17
2019-04-07T02:06:38.024Z,41.20
2019-04-07T02:09:17.114Z,38.87
2019-04-07T02:11:51.563Z,40.73
2019-04-07T02:14:32.081Z,37.50
2019-04-07T02:17:09.867Z,41.90
2019-04-07T02:19:47.334Z,39.87
2019-04-07T02:22:31.269Z,37.90
2019-04-07T02:25:14.832Z,42.03
2019-04-07T02:27:46.764Z,39.80
2019-04-07T02:30:21.699Z,36.97
2019-04-07T02:33:10.730Z,42.33
2019-04-07T02:35:43.226Z,40.50
2019-04-07T02:38:27.931Z,44.97
2019-04-07T02:41:08.972Z,47.63
2019-04-07T02:43:40.933Z,48.03
2019-04-07T02:46:12.922Z,41.53
2019-04-07T02:48:51.299Z,58.97
2019-04-07T02:51:40.955Z,42.10
2019-04-07T02:54:27.626Z,47.97
2019-04-07T02:56:59.215Z,47.70
2019-04-07T02:59:41.146Z,42.50
2019-04-07T03:02:16.413Z,39.50
2019-04-07T03:04:57.072Z,42.67
2019-04-07T03:07:34.607Z,44.80
2019-04-07T03:10:13.049Z,42.47
2019-04-07T03:12:47.575Z,44.63
2019-04-07T03:15:19.358Z,44.00
2019-04-07T03:17:57.327Z,48.97
2019-04-07T03:20:29.557Z,47.20
2019-04-07T03:23:02.149Z,45.37
2019-04-07T03:25:34.329Z,42.60
2019-04-07T03:28:10.202Z,51.43
2019-04-07T03:30:59.041Z,47.70
2019-04-07T03:33:33.433Z,44.60
2019-04-07T03:36:21.605Z,45.20
2019-04-07T03:38:53.732Z,41.27
2019-04-07T03:41:25.711Z,46.53
2019-04-07T03:43:57.526Z,43.37
2019-04-07T03:46:38.904Z,44.20
2019-04-07T03:49:13.559Z,46.63
2019-04-07T03:51:45.719Z,43.33
2019-04-07T03:54:30.218Z,52.17
2019-04-07T03:57:05.031Z,44.93
2019-04-07T03:59:42.793Z,44.77
2019-04-07T04:02:20.374Z,45.30
2019-04-07T04:04:52.094Z,47.47
2019-04-07T04:07:31.460Z,45.87
2019-04-07T04:09:58.100Z,45.37
2019-04-07T04:12:35.801Z,47.13
2019-04-07T04:15:09.105Z,47.33
2019-04-07T04:17:39.293Z,49.13
2019-04-07T04:20:09.361Z,43.80
2019-04-07T04:22:39.914Z,47.17
2019-04-07T04:25:10.682Z,44.40
2019-04-07T04:27:40.894Z,46.57
2019-04-07T04:30:12.122Z,44.43
2019-04-07T04:32:43.496Z,50.57
2019-04-07T04:35:14.802Z,54.43
2019-04-07T04:37:51.135Z,46.33
2019-04-07T04:40:17.738Z,44.27
2019-04-07T04:42:48.531Z,46.03
2019-04-07T04:45:18.746Z,49.70
2019-04-07T04:47:48.720Z,47.50
2019-04-07T04:50:18.923Z,50.33
2019-04-07T04:52:49.507Z,47.27
2019-04-07T04:55:20.599Z,47.27
2019-04-07T04:57:51.179Z,45.43
2019-04-07T05:00:21.826Z,48.13
2019-04-07T05:02:52.499Z,43.27
2019-04-07T05:05:23.201Z,48.47
2019-04-07T05:07:59.073Z,48.37
2019-04-07T05:10:25.111Z,47.23
2019-04-07T05:12:55.089Z,47.33
2019-04-07T05:15:25.077Z,53.10
2019-04-07T05:17:55.074Z,48.97
2019-04-07T05:20:25.242Z,44.07
2019-04-07T05:22:55.236Z,46.67
2019-04-07T05:25:25.247Z,48.47
2019-04-07T05:27:55.854Z,52.97
2019-04-07T05:30:26.131Z,50.27
2019-04-07T05:32:56.830Z,47.13
2019-04-07T05:35:27.627Z,47.17
2019-04-07T05:38:02.842Z,47.13
2019-04-07T05:40:29.535Z,47.20
2019-04-07T05:42:59.909Z,48.03
2019-04-07T05:45:30.452Z,47.70
2019-04-07T05:48:00.550Z,43.30
2019-04-07T05:50:31.822Z,47.17
2019-04-07T05:53:01.991Z,46.13
2019-04-07T05:55:33.454Z,50.77
2019-04-07T05:58:06.475Z,55.73
2019-04-07T06:00:36.178Z,50.90
2019-04-07T06:03:08.383Z,42.77
2019-04-07T06:05:38.482Z,49.30
2019-04-07T06:08:27.079Z,48.13
2019-04-07T06:10:43.678Z,45.27
2019-04-07T06:57:17.433Z,42.27
2019-04-07T07:13:48.897Z,39.27
2019-04-07T07:33:06.560Z,41.90
2019-04-07T07:45:20.867Z,38.17
2019-04-07T09:29:48.802Z,26.73
2019-04-07T09:32:30.064Z,24.80
2019-04-07T09:35:02.039Z,26.57
2019-04-07T09:37:39.869Z,24.80
2019-04-07T09:40:18.551Z,27.27
2019-04-07T09:43:01.100Z,28.60
2019-04-07T09:45:44.769Z,28.00
2019-04-07T09:48:32.072Z,29.17
2019-04-07T09:51:07.313Z,30.60
2019-04-07T09:53:42.811Z,25.23
2019-04-07T09:56:20.207Z,26.37
2019-04-07T09:58:51.764Z,29.07
2019-04-07T10:01:28.768Z,25.63
2019-04-07T10:04:12.115Z,30.90
2019-04-07T10:06:49.411Z,28.77
2019-04-07T10:09:20.334Z,31.37
2019-04-07T10:12:08.182Z,26.40
2019-04-07T10:14:56.323Z,31.93
2019-04-07T10:17:27.952Z,23.53
2019-04-07T10:20:17.979Z,24.37
2019-04-07T10:23:07.969Z,26.63
2019-04-07T10:25:43.371Z,26.13
2019-04-07T10:28:27.624Z,27.00
2019-04-07T10:31:05.217Z,27.87
2019-04-07T10:33:49.437Z,42.80
2019-04-07T10:36:27.082Z,25.77
2019-04-07T10:39:04.424Z,28.70
2019-04-07T10:41:39.326Z,26.03
2019-04-07T10:44:17.180Z,26.83
2019-04-07T10:47:06.001Z,30.67
2019-04-07T10:49:38.120Z,30.00
2019-04-07T10:52:21.823Z,30.10
2019-04-07T10:54:59.536Z,24.33
2019-04-07T10:57:40.362Z,28.00
2019-04-07T11:00:15.900Z,27.13
2019-04-07T11:02:47.935Z,22.27
2019-04-07T11:05:19.580Z,24.90
2019-04-07T11:07:54.684Z,26.87
2019-04-07T11:10:37.366Z,27.47
2019-04-07T11:13:22.111Z,29.20
2019-04-07T11:15:54.122Z,25.30
2019-04-07T11:18:28.632Z,28.10
2019-04-07T11:21:06.386Z,24.70
2019-04-07T11:23:41.435Z,23.50
2019-04-07T11:26:31.183Z,24.23
2019-04-07T11:29:08.550Z,27.27
2019-04-07T11:31:46.317Z,27.63
2019-04-07T11:34:21.661Z,24.30
2019-04-07T11:36:54.393Z,26.53
2019-04-07T11:39:32.714Z,28.70
2019-04-07T11:42:17.065Z,27.13
2019-04-07T11:44:48.861Z,27.83
2019-04-07T11:47:26.761Z,21.67
2019-04-07T11:49:59.191Z,30.13
2019-04-07T11:52:32.079Z,29.90
2019-04-07T11:55:12.661Z,26.83
2019-04-07T11:58:00.658Z,32.90
2019-04-07T12:00:20.661Z,27.87
2019-04-07T12:03:05.010Z,27.07
2019-04-07T12:05:46.121Z,25.73
2019-04-07T12:08:25.172Z,25.57
2019-04-07T12:11:14.444Z,25.00
2019-04-07T12:14:02.554Z,30.47
2019-04-07T12:16:34.997Z,25.20
2019-04-07T12:19:22.792Z,28.80
2019-04-07T12:21:52.347Z,30.63
2019-04-07T12:24:32.701Z,25.53
2019-04-07T12:27:08.953Z,24.30
2019-04-07T12:29:40.236Z,23.57
2019-04-07T12:32:21.366Z,20.23
2019-04-07T12:35:05.276Z,23.07
2019-04-07T12:37:58.001Z,25.73
2019-04-07T12:40:29.031Z,22.00
2019-04-07T12:43:03.573Z,23.27
2019-04-07T12:45:41.692Z,26.10
2019-04-07T12:48:16.790Z,19.67
2019-04-07T12:50:49.915Z,23.17
2019-04-07T12:53:36.850Z,23.07
2019-04-07T12:56:09.577Z,21.43
2019-04-07T12:58:46.996Z,23.53
2019-04-07T13:01:32.807Z,25.10
2019-04-07T13:04:16.550Z,24.50
2019-04-07T13:06:51.278Z,24.27
2019-04-07T13:09:35.107Z,22.47
2019-04-07T13:12:22.933Z,23.60
2019-04-07T13:14:52.263Z,22.07
2019-04-07T13:17:40.904Z,21.00
2019-04-07T13:20:31.162Z,23.10
2019-04-07T13:23:12.297Z,23.27
2019-04-07T13:25:53.077Z,24.33
2019-04-07T13:28:40.155Z,21.57
2019-04-07T13:31:28.705Z,26.13
2019-04-07T13:34:06.492Z,20.50
2019-04-07T13:36:43.765Z,20.40
2019-04-07T13:39:27.365Z,24.27
2019-04-07T13:41:59.121Z,20.10
2019-04-07T13:44:40.913Z,22.50
2019-04-07T13:47:13.209Z,20.03
2019-04-07T13:49:44.806Z,16.67
2019-04-07T13:52:20.792Z,19.97
2019-04-07T13:55:06.893Z,17.20
2019-04-07T13:57:40.642Z,18.27
2019-04-07T14:00:15.669Z,20.20
2019-04-07T14:02:49.083Z,18.67
2019-04-07T14:05:29.727Z,19.30
2019-04-07T14:08:10.386Z,19.50
2019-04-07T14:10:45.002Z,16.93
2019-04-07T14:13:19.995Z,17.50
2019-04-07T14:15:57.677Z,18.33
2019-04-07T14:18:32.269Z,18.77
2019-04-07T14:21:15.796Z,15.57
2019-04-07T14:23:54.623Z,18.43
2019-04-07T14:26:33.442Z,15.97
2019-04-07T14:29:20.463Z,12.50
2019-04-07T14:31:55.520Z,13.10
2019-04-07T14:34:35.820Z,13.53
2019-04-07T14:37:06.239Z,15.07
2019-04-07T14:39:56.722Z,18.47
2019-04-07T14:42:31.669Z,18.50
2019-04-07T14:45:20.027Z,16.47
2019-04-07T14:48:08.156Z,15.17
2019-04-07T14:50:57.126Z,19.80
2019-04-07T14:53:46.213Z,15.00
2019-04-07T14:56:35.757Z,14.10
2019-04-07T14:59:13.291Z,18.07
2019-04-07T15:02:00.055Z,19.13
2019-04-07T15:04:35.720Z,16.50
2019-04-07T15:07:24.685Z,16.27
2019-04-07T15:09:56.571Z,20.93
2019-04-07T15:12:28.514Z,18.43
2019-04-07T15:14:58.973Z,17.47
2019-04-07T15:17:29.416Z,17.60
2019-04-07T15:19:59.689Z,17.00
2019-04-07T15:22:31.127Z,18.53
2019-04-07T15:25:01.640Z,16.57
2019-04-07T15:27:32.606Z,17.97
2019-04-07T15:30:02.745Z,18.00
2019-04-07T15:32:35.480Z,19.67
2019-04-07T15:35:06.268Z,33.83
2019-04-07T15:37:39.241Z,19.87
2019-04-07T15:40:08.340Z,22.97
2019-04-07T15:42:43.410Z,100.70
2019-04-07T15:45:13.297Z,86.20
2019-04-07T15:47:43.366Z,67.97
2019-04-07T15:50:15.982Z,164.17
2019-04-07T15:52:47.055Z,102.50
2019-04-07T15:55:17.490Z,30.27
2019-04-07T15:57:48.067Z,18.30
2019-04-07T16:00:18.521Z,19.80
2019-04-07T16:02:49.996Z,75.80
2019-04-07T16:05:20.360Z,37.70
2019-04-07T16:07:53.181Z,23.87
2019-04-07T16:10:23.915Z,26.03
2019-04-07T16:12:55.683Z,56.20
2019-04-07T16:15:26.146Z,97.77
2019-04-07T16:17:56.701Z,134.03
2019-04-07T16:20:33.529Z,24.40
2019-04-07T16:22:58.529Z,24.27
2019-04-07T16:25:29.138Z,50.93
2019-04-07T16:27:59.720Z,65.77
2019-04-07T16:30:30.451Z,52.10
2019-04-07T16:33:03.176Z,29.57
2019-04-07T16:35:32.412Z,28.00
2019-04-07T16:38:02.937Z,23.87
2019-04-07T16:40:33.924Z,38.43
2019-04-07T16:43:11.715Z,21.83
2019-04-07T16:45:36.727Z,23.77
2019-04-07T21:16:17.713Z,176.73
2019-04-07T21:18:53.001Z,258.63
2019-04-07T21:21:25.569Z,125.73
2019-04-07T21:23:57.389Z,73.33
2019-04-07T21:26:30.929Z,79.47
2019-04-07T21:29:10.489Z,82.83
2019-04-07T21:31:41.587Z,87.77
2019-04-07T21:34:22.820Z,87.97
2019-04-07T21:37:03.458Z,110.17
2019-04-07T21:39:38.437Z,139.70
2019-04-07T21:42:17.141Z,121.30
2019-04-07T21:44:49.110Z,132.67
2019-04-07T21:47:33.134Z,148.90
2019-04-07T21:50:07.481Z,137.40
2019-04-07T21:52:55.722Z,145.30
2019-04-07T21:55:27.490Z,174.77
2019-04-07T21:57:59.800Z,241.73
2019-04-07T22:00:48.003Z,153.93
2019-04-07T22:03:35.262Z,164.00
2019-04-07T22:06:20.148Z,146.20
2019-04-07T22:08:51.911Z,173.30
2019-04-07T22:11:24.672Z,158.90
2019-04-07T22:13:53.595Z,175.13
2019-04-07T22:16:24.559Z,144.50
2019-04-07T22:18:55.307Z,101.70
2019-04-07T22:21:25.727Z,77.10
2019-04-07T22:23:56.170Z,70.50
2019-04-07T22:26:26.420Z,82.30
2019-04-07T22:28:56.951Z,79.67
2019-04-07T22:31:29.697Z,84.97
2019-04-07T22:34:01.215Z,129.57
2019-04-07T22:36:31.549Z,106.27
2019-04-07T22:39:02.509Z,126.13
2019-04-07T22:41:32.629Z,119.80
2019-04-07T22:44:02.637Z,110.73
2019-04-07T22:46:33.142Z,78.00
2019-04-07T22:49:03.309Z,74.47
2019-04-07T22:51:33.469Z,91.47
2019-04-07T22:54:03.586Z,79.73
2019-04-07T22:56:36.586Z,98.23
2019-04-07T22:59:06.019Z,90.47
2019-04-07T23:01:37.421Z,73.30
2019-04-07T23:04:07.525Z,72.20
2019-04-07T23:06:38.317Z,80.53
2019-04-07T23:09:08.697Z,64.87
2019-04-07T23:11:39.756Z,59.00
2019-04-07T23:14:09.880Z,60.87
2019-04-07T23:16:40.198Z,60.93
2019-04-07T23:19:10.953Z,79.73
2019-04-07T23:21:41.752Z,82.80
2019-04-07T23:24:12.862Z,103.50
2019-04-07T23:26:43.056Z,59.37
2019-04-07T23:29:14.158Z,49.07
2019-04-07T23:31:44.405Z,65.53
2019-04-07T23:34:14.795Z,55.07
2019-04-07T23:36:45.695Z,56.37
2019-04-07T23:39:15.799Z,62.40
2019-04-07T23:41:45.767Z,50.33
2019-04-07T23:44:16.091Z,69.07
2019-04-07T23:46:46.172Z,77.90
2019-04-07T23:49:16.128Z,79.93
2019-04-07T23:51:46.135Z,87.27
2019-04-07T23:54:16.454Z,94.07
2019-04-07T23:56:46.585Z,93.33
2019-04-07T23:59:16.888Z,84.60
